Terminal Aerodrome Forecast
Issued by NWS Louisville, KY

Home | Current Version | Previous Version | Text Only | Print | Product List | Glossary On
Versions: 1 2 3 4 5 6 7 8 9 10 11 12 13 14 15 16
000
FTUS43 KLMK 250500
TAFBWG
TAF
KBWG 250520Z 2506/2606 21011KT P6SM VCTS BKN070CB
      TEMPO 2507/2509 VRB15G25KT 3SM -TSRA BR OVC050CB
     FM250900 24012KT P6SM VCSH BKN025
     FM251300 27012G18KT P6SM BKN025
     FM251600 29013G21KT P6SM SCT040
     FM252300 VRB05KT P6SM SKC=

USA.gov is the U.S. government's official web portal to all federal, state and local government web resources and services.